PWSweather.com
Personal Weather Stations
Station Observations
GRD01
Warsaw, LesznoPL 05-084

WarsawLesznoPL 05-084

Lat: 52.257404, Lon: 20.564847

Elevation: 298

Station Type: WH3080

http://pogoda.kampinos.waw.pl

Latest ConditionsUpdated 6:15:00 AM GMT+01:01 Saturday, Jan 18, 2020
Currently Today's Max Today's Min Today's Average
Temperature 36.7°F2.6°C 36.7°F2.6°C 33.8°F1.0°C 35.0°F1.7°C
Dew Point 31.4°F-0.3°C 31.4°F-0.3°C 28.9°F-1.7°C 30.0°F-1.1°C
Winds 2.2 mph NE3.5 kmh NE 5.4 mph -8.7 kmh - - 3.6 mph 5.8 kmh
Wind Gusts 8.3 mph13.4 kmh 11.4 mph18.3 kmh - -
Humidity 81% 82% 81% 82%
Pressure 30.00 in1015.9 mb 30.00 in1015.9 mb 29.98 in1015.2 mb -
Hour Temp Dew Point Humidity Winds Wind Gusts Pressure Precip Precip Rate Daily Precip Total
06:15 AM 36.7°F2.6°C 31.4°F-0.3°C 81% 2.2 mph NE3.5 kmh NE 8.3 mph13.4 kmh 30.00 in1015.9 mb 0.00 in0.0 mm 0.00 in0.0 mm 0.00 in0.0 mm
06:00 AM 36.3°F2.4°C 31.0°F-0.6°C 81% 3.1 mph WNW5.0 kmh WNW 8.3 mph13.4 kmh 29.99 in1015.6 mb 0.00 in0.0 mm 0.00 in0.0 mm 0.00 in0.0 mm
05:45 AM 36.0°F2.2°C 30.7°F-0.7°C 81% 2.2 mph S3.5 kmh S 6.9 mph11.1 kmh 30.00 in1015.9 mb 0.00 in0.0 mm 0.00 in0.0 mm 0.00 in0.0 mm
05:30 AM 35.8°F2.1°C 30.5°F-0.8°C 81% 1.6 mph S2.6 kmh S 7.6 mph12.2 kmh 30.00 in1015.9 mb 0.00 in0.0 mm 0.00 in0.0 mm 0.00 in0.0 mm
05:15 AM 35.4°F1.9°C 30.2°F-1.0°C 81% 3.1 mph SW5.0 kmh SW 6.0 mph9.7 kmh 30.00 in1015.9 mb 0.00 in0.0 mm 0.00 in0.0 mm 0.00 in0.0 mm
05:00 AM 35.2°F1.8°C 30.0°F-1.1°C 81% 2.2 mph S3.5 kmh S 6.9 mph11.1 kmh 29.99 in1015.6 mb 0.00 in0.0 mm 0.00 in0.0 mm 0.00 in0.0 mm
04:45 AM 35.1°F1.7°C 30.1°F-1.1°C 82% 2.2 mph S3.5 kmh S 6.9 mph11.1 kmh 30.00 in1015.9 mb 0.00 in0.0 mm 0.00 in0.0 mm 0.00 in0.0 mm
04:30 AM 34.9°F1.6°C 29.9°F-1.2°C 82% 3.1 mph S5.0 kmh S 6.0 mph9.7 kmh 29.99 in1015.6 mb 0.00 in0.0 mm 0.00 in0.0 mm 0.00 in0.0 mm
04:15 AM 34.5°F1.4°C 29.6°F-1.3°C 82% 3.1 mph SSW5.0 kmh SSW 5.4 mph8.7 kmh 29.99 in1015.6 mb 0.00 in0.0 mm 0.00 in0.0 mm 0.00 in0.0 mm
04:00 AM 33.8°F1.0°C 28.9°F-1.7°C 82% 3.8 mph S6.1 kmh S 5.4 mph8.7 kmh 29.99 in1015.6 mb 0.00 in0.0 mm 0.00 in0.0 mm 0.00 in0.0 mm
03:45 AM 33.8°F1.0°C 28.9°F-1.7°C 82% 2.2 mph S3.5 kmh S 5.4 mph8.7 kmh 29.99 in1015.6 mb 0.00 in0.0 mm 0.00 in0.0 mm 0.00 in0.0 mm
03:30 AM 34.0°F1.1°C 29.1°F-1.6°C 82% 3.8 mph SSE6.1 kmh SSE 6.0 mph9.7 kmh 29.99 in1015.6 mb 0.00 in0.0 mm 0.00 in0.0 mm 0.00 in0.0 mm
03:15 AM 34.3°F1.3°C 29.4°F-1.4°C 82% 4.5 mph SSE7.2 kmh SSE 5.4 mph8.7 kmh 29.99 in1015.6 mb 0.00 in0.0 mm 0.00 in0.0 mm 0.00 in0.0 mm
03:00 AM 34.7°F1.5°C 29.8°F-1.2°C 82% 2.2 mph SSE3.5 kmh SSE 6.0 mph9.7 kmh 29.99 in1015.6 mb 0.00 in0.0 mm 0.00 in0.0 mm 0.00 in0.0 mm
02:45 AM 34.9°F1.6°C 29.9°F-1.2°C 82% 4.5 mph S7.2 kmh S 7.6 mph12.2 kmh 29.99 in1015.6 mb 0.00 in0.0 mm 0.00 in0.0 mm 0.00 in0.0 mm
02:30 AM 34.9°F1.6°C 29.9°F-1.2°C 82% 3.8 mph S6.1 kmh S 9.2 mph14.8 kmh 29.99 in1015.6 mb 0.00 in0.0 mm 0.00 in0.0 mm 0.00 in0.0 mm
02:15 AM 34.7°F1.5°C 29.8°F-1.2°C 82% 3.1 mph SE5.0 kmh SE 6.0 mph9.7 kmh 29.99 in1015.6 mb 0.00 in0.0 mm 0.00 in0.0 mm 0.00 in0.0 mm
02:00 AM 34.7°F1.5°C 29.8°F-1.2°C 82% 4.5 mph SSE7.2 kmh SSE 6.0 mph9.7 kmh 29.99 in1015.6 mb 0.00 in0.0 mm 0.00 in0.0 mm 0.00 in0.0 mm
01:45 AM 34.9°F1.6°C 29.9°F-1.2°C 82% 5.4 mph SSE8.7 kmh SSE 7.6 mph12.2 kmh 29.99 in1015.6 mb 0.00 in0.0 mm 0.00 in0.0 mm 0.00 in0.0 mm
01:30 AM 34.9°F1.6°C 29.9°F-1.2°C 82% 3.8 mph S6.1 kmh S 6.9 mph11.1 kmh 29.99 in1015.6 mb 0.00 in0.0 mm 0.00 in0.0 mm 0.00 in0.0 mm
01:15 AM 35.1°F1.7°C 30.1°F-1.1°C 82% 3.8 mph SSE6.1 kmh SSE 9.2 mph14.8 kmh 29.99 in1015.6 mb 0.00 in0.0 mm 0.00 in0.0 mm 0.00 in0.0 mm
01:00 AM 35.1°F1.7°C 30.1°F-1.1°C 82% 4.5 mph SE7.2 kmh SE 8.3 mph13.4 kmh 29.99 in1015.6 mb 0.00 in0.0 mm 0.00 in0.0 mm 0.00 in0.0 mm
12:45 AM 35.2°F1.8°C 30.3°F-0.9°C 82% 4.5 mph SE7.2 kmh SE 11.4 mph18.3 kmh 29.98 in1015.2 mb 0.00 in0.0 mm 0.00 in0.0 mm 0.00 in0.0 mm
12:30 AM 35.2°F1.8°C 30.3°F-0.9°C 82% 5.4 mph SE8.7 kmh SE 9.8 mph15.8 kmh 29.98 in1015.2 mb 0.00 in0.0 mm 0.00 in0.0 mm 0.00 in0.0 mm
12:15 AM 35.4°F1.9°C 30.5°F-0.8°C 82% 5.4 mph SSE8.7 kmh SSE 9.8 mph15.8 kmh 29.99 in1015.6 mb 0.00 in0.0 mm 0.00 in0.0 mm 0.00 in0.0 mm
12:00 AM 35.4°F1.9°C 30.5°F-0.8°C 82% 5.4 mph S8.7 kmh S 9.8 mph15.8 kmh 30.00 in1015.9 mb 0.00 in0.0 mm 0.00 in0.0 mm 0.00 in0.0 mm